28 de maio de 2022

Hora Código Clima Temp. Visibilidade Tecto Vento METAR/SPECI
6:00 da tarde
V
70 °F 6¼ mi+ - 020° 020° 10 - 23 kt METAR LFBL 281600Z AUTO 02010G23KT 320V060 CAVOK 21/05 Q1017 NOSIG
5:30 da tarde
V
70 °F 6¼ mi+ - 030° 030° 11 kt METAR LFBL 281530Z AUTO 03011KT 350V080 CAVOK 21/04 Q1017 NOSIG
5:00 da tarde
V
70 °F 6¼ mi+ - 020° 020° 10 kt METAR LFBL 281500Z AUTO 02010KT 310V060 CAVOK 21/05 Q1017 NOSIG
4:30 da tarde
V
70 °F 6¼ mi+ - 360° 360° 10 kt METAR LFBL 281430Z AUTO 36010KT 330V030 CAVOK 21/04 Q1018 NOSIG
4:00 da tarde
V
70 °F 6¼ mi+ - 010° 010° 10 kt METAR LFBL 281400Z AUTO 01010KT 330V050 CAVOK 21/04 Q1018 NOSIG
3:30 da tarde
V
70 °F 6¼ mi+ - 020° 020° 10 kt METAR LFBL 281330Z AUTO 02010KT 340V050 CAVOK 21/05 Q1018 NOSIG
3:00 da tarde
V
70 °F 6¼ mi+ - 010° 010° 11 kt METAR LFBL 281300Z AUTO 01011KT 320V060 CAVOK 21/05 Q1018 NOSIG
2:30 da tarde
V
70 °F 6¼ mi+ - 030° 030° 12 kt METAR LFBL 281230Z AUTO 03012KT 360V060 CAVOK 21/04 Q1019 NOSIG
2:00 da tarde
V
70 °F 6¼ mi+ - 040° 040° 13 kt METAR LFBL 281200Z AUTO 04013KT 010V070 CAVOK 21/05 Q1019 NOSIG
1:30 da tarde
V
68 °F 6¼ mi+ - 030° 030° 11 kt METAR LFBL 281130Z AUTO 03011KT 340V060 CAVOK 20/06 Q1019 NOSIG
1:00 da tarde
V
68 °F 6¼ mi+ - 020° 020° 10 kt METAR LFBL 281100Z AUTO 02010KT 340V060 CAVOK 20/07 Q1020 NOSIG
12:30 da tarde
V
66 °F 6¼ mi+ - 030° 030° 12 kt METAR LFBL 281030Z AUTO 03012KT 350V070 CAVOK 19/06 Q1020 NOSIG
12:00 da tarde
V
68 °F 6¼ mi+ - 030° 030° 12 kt METAR LFBL 281000Z AUTO 03012KT 340V080 CAVOK 20/05 Q1020 NOSIG
11:30 da manhã
V
66 °F 6¼ mi+ - 040° 040° 12 kt METAR LFBL 280930Z AUTO 04012KT CAVOK 19/06 Q1020 NOSIG
11:00 da manhã
V
64 °F 6¼ mi+ - 040° 040° 12 kt METAR LFBL 280900Z AUTO 04012KT CAVOK 18/07 Q1020 NOSIG
10:30 da manhã
V
64 °F 6¼ mi+ - 030° 030° 11 kt METAR LFBL 280830Z AUTO 03011KT 360V070 CAVOK 18/08 Q1020 NOSIG
10:00 da manhã
V
63 °F 6¼ mi+ - 040° 040° 15 kt METAR LFBL 280800Z AUTO 04015KT CAVOK 17/10 Q1020 NOSIG
9:30 da manhã
V
63 °F 6¼ mi+ - 040° 040° 12 kt METAR LFBL 280730Z AUTO 04012KT CAVOK 17/10 Q1021 NOSIG
9:00 da manhã
V
61 °F 6¼ mi+ - 040° 040° 12 kt METAR LFBL 280700Z AUTO 04012KT CAVOK 16/11 Q1021 NOSIG
8:30 da manhã
V
59 °F 6¼ mi+ - 040° 040° 11 kt METAR LFBL 280630Z AUTO 04011KT CAVOK 15/11 Q1021 NOSIG
8:00 da manhã
V
57 °F 6¼ mi+ - 020° 020° 10 kt METAR LFBL 280600Z AUTO 02010KT 9999 FEW013 14/11 Q1021 NOSIG
7:30 da manhã
V
55 °F 6¼ mi+ - 020° 020° 9 kt METAR LFBL 280530Z AUTO 02009KT CAVOK 13/11 Q1021 NOSIG
7:00 da manhã
V
55 °F 6¼ mi+ - 010° 010° 9 kt METAR LFBL 280500Z AUTO 01009KT CAVOK 13/11 Q1021 NOSIG
6:30 da manhã
V
55 °F 6¼ mi+ - 020° 020° 10 kt METAR LFBL 280430Z AUTO 02010KT CAVOK 13/10 Q1021 NOSIG
6:00 da manhã
V
54 °F 6¼ mi+ - 020° 020° 10 kt METAR LFBL 280400Z AUTO 02010KT CAVOK 12/10 Q1021 NOSIG
5:30 da manhã
V
54 °F 6¼ mi+ - 020° 020° 9 kt METAR LFBL 280330Z AUTO 02009KT CAVOK 12/10 Q1021 NOSIG
5:00 da manhã
V
54 °F 6¼ mi+ - 020° 020° 9 kt METAR LFBL 280300Z AUTO 02009KT CAVOK 12/11 Q1021 NOSIG
4:30 da manhã
V
54 °F 6¼ mi+ - 020° 020° 8 kt METAR LFBL 280230Z AUTO 02008KT CAVOK 12/11 Q1021 NOSIG
4:00 da manhã
V
55 °F 6¼ mi+ - 020° 020° 10 kt METAR LFBL 280200Z AUTO 02010KT CAVOK 13/11 Q1021 NOSIG
3:30 da manhã
V
55 °F 6¼ mi+ - 020° 020° 8 kt METAR LFBL 280130Z AUTO 02008KT CAVOK 13/11 Q1022 NOSIG
3:00 da manhã
V
55 °F 6¼ mi+ - 020° 020° 7 kt METAR LFBL 280100Z AUTO 02007KT CAVOK 13/11 Q1022 NOSIG
2:30 da manhã
V
55 °F 6¼ mi+ - 020° 020° 8 kt METAR LFBL 280030Z AUTO 02008KT CAVOK 13/10 Q1022 NOSIG
2:00 da manhã
V
55 °F 6¼ mi+ - 020° 020° 9 kt METAR LFBL 280000Z AUTO 02009KT CAVOK 13/10 Q1023 NOSIG
1:30 da manhã
V
55 °F 6¼ mi+ - 020° 020° 8 kt METAR LFBL 272330Z AUTO 02008KT CAVOK 13/10 Q1023 NOSIG
1:00 da manhã
V
57 °F 6¼ mi+ - 020° 020° 9 kt METAR LFBL 272300Z AUTO 02009KT CAVOK 14/11 Q1023 NOSIG
12:30 da manhã
V
55 °F 6¼ mi+ - 030° 030° 7 kt METAR LFBL 272230Z AUTO 03007KT CAVOK 13/11 Q1024 NOSIG
12:00 da manhã
V
57 °F 6¼ mi+ - 020° 020° 6 kt METAR LFBL 272200Z AUTO 02006KT CAVOK 14/10 Q1024 NOSIG

27 de maio de 2022

Hora Código Clima Temp. Visibilidade Tecto Vento METAR/SPECI
11:30 da tarde
V
57 °F 6¼ mi+ - 010° 010° 7 kt METAR LFBL 272130Z AUTO 01007KT CAVOK 14/11 Q1024 NOSIG
11:00 da tarde
V
57 °F 6¼ mi+ - 020° 020° 7 kt METAR LFBL 272100Z AUTO 02007KT CAVOK 14/11 Q1024 NOSIG
10:30 da tarde
V
59 °F 6¼ mi+ - 020° 020° 8 kt METAR LFBL 272030Z AUTO 02008KT CAVOK 15/11 Q1024 NOSIG
10:00 da tarde
V
61 °F 6¼ mi+ - 020° 020° 9 kt METAR LFBL 272000Z AUTO 02009KT 340V050 CAVOK 16/11 Q1024 NOSIG
9:30 da tarde
V
61 °F 6¼ mi+ - 010° 010° 8 kt METAR LFBL 271930Z AUTO 01008KT 330V040 CAVOK 16/11 Q1024 NOSIG
9:00 da tarde
V
63 °F 6¼ mi+ - 010° 010° 7 kt METAR LFBL 271900Z AUTO 01007KT 330V040 CAVOK 17/11 Q1024 NOSIG
8:30 da tarde
V
64 °F 6¼ mi+ - 360° 360° 7 kt METAR LFBL 271830Z AUTO 36007KT 310V040 CAVOK 18/11 Q1024 NOSIG
8:00 da tarde
V
66 °F 6¼ mi+ - 360° 360° 8 kt METAR LFBL 271800Z AUTO 36008KT 320V040 CAVOK 19/11 Q1024 NOSIG
7:30 da tarde
V
66 °F 6¼ mi+ - 010° 010° 9 kt METAR LFBL 271730Z AUTO 01009KT 320V040 9999 FEW031 19/12 Q1024 NOSIG
7:00 da tarde
V
66 °F 6¼ mi+ - 360° 360° 9 kt METAR LFBL 271700Z AUTO 36009KT 310V030 9999 FEW008 19/12 Q1024 NOSIG
6:30 da tarde
V
68 °F 6¼ mi+ - 360° 360° 9 kt METAR LFBL 271630Z AUTO 36009KT 310V030 CAVOK 20/12 Q1024 NOSIG
6:00 da tarde
V
68 °F 6¼ mi+ - 350° 350° 9 kt METAR LFBL 271600Z AUTO 35009KT 310V040 CAVOK 20/12 Q1024 NOSIG
5:30 da tarde
V
68 °F 6¼ mi+ - 340° 340° 8 kt METAR LFBL 271530Z AUTO 34008KT 300V030 9999 FEW033 20/11 Q1024 NOSIG
5:00 da tarde
V
68 °F 6¼ mi+ - 360° 360° 9 kt METAR LFBL 271500Z AUTO 36009KT 320V050 CAVOK 20/12 Q1025 NOSIG
4:30 da tarde
V
68 °F 6¼ mi+ - 350° 350° 9 kt METAR LFBL 271430Z AUTO 35009KT 300V030 CAVOK 20/11 Q1025 NOSIG
4:00 da tarde
V
68 °F 6¼ mi+ - 020° 020° 8 kt METAR LFBL 271400Z AUTO 02008KT 330V070 9999 FEW033 20/11 Q1025 NOSIG
3:30 da tarde
V
66 °F 6¼ mi+ - 360° 360° 6 kt METAR LFBL 271330Z AUTO 36006KT 300V080 9999 FEW032 19/11 Q1025 NOSIG
3:00 da tarde
V
66 °F 6¼ mi+ - 340° 340° 8 kt METAR LFBL 271300Z AUTO 34008KT 280V030 9999 SCT030 19/11 Q1025 NOSIG
2:30 da tarde
V
66 °F 6¼ mi+ - 340° 340° 8 kt METAR LFBL 271230Z AUTO 34008KT 290V040 9999 FEW029 19/11 Q1026 NOSIG
2:00 da tarde
V
64 °F 6¼ mi+ - 010° 010° 7 kt METAR LFBL 271200Z AUTO 01007KT 290V070 9999 FEW028 18/10 Q1026 NOSIG
1:30 da tarde
M
64 °F 6¼ mi+ 2.600 ft 360° 360° 6 kt METAR LFBL 271130Z AUTO 36006KT 290V070 9999 BKN026 BKN031 18/11 Q1026 NOSIG
1:00 da tarde
M
63 °F 6¼ mi+ 2.700 ft 350° 350° 6 kt METAR LFBL 271100Z AUTO 35006KT 290V040 9999 BKN027 17/11 Q1026 NOSIG
12:30 da tarde
M
61 °F 6¼ mi+ 2.500 ft 020° 020° 7 kt METAR LFBL 271030Z AUTO 02007KT 330V050 9999 BKN025 BKN030 16/11 Q1027 NOSIG
12:00 da tarde
M
61 °F 6¼ mi+ 2.200 ft 010° 010° 6 kt METAR LFBL 271000Z AUTO 01006KT 330V050 9999 OVC022 16/11 Q1027 NOSIG
11:30 da manhã
M
59 °F 6¼ mi+ 1.900 ft 030° 030° 7 kt METAR LFBL 270930Z AUTO 03007KT 360V060 9999 BKN019 OVC024 15/10 Q1027 NOSIG
11:00 da manhã
M
59 °F 6¼ mi+ 1.900 ft 030° 030° 7 kt METAR LFBL 270900Z AUTO 03007KT 9999 OVC019 15/11 Q1027 NOSIG
10:30 da manhã
M
59 °F 6¼ mi+ 2.100 ft 010° 010° 7 kt METAR LFBL 270830Z AUTO 01007KT 340V050 9999 SCT015 OVC021 15/11 Q1027 NOSIG
10:00 da manhã
M
57 °F 6¼ mi+ 2.200 ft 020° 020° 5 kt METAR LFBL 270800Z AUTO 02005KT 340V060 9999 OVC022 14/11 Q1027 NOSIG
9:30 da manhã
M
57 °F 6¼ mi+ 2.200 ft 010° 010° 6 kt METAR LFBL 270730Z AUTO 01006KT 330V050 9999 OVC022 14/11 Q1027 NOSIG
9:00 da manhã
M
55 °F 6¼ mi+ 2.100 ft 020° 020° 6 kt METAR LFBL 270700Z AUTO 02006KT 340V040 9999 OVC021 13/11 Q1027 NOSIG
8:30 da manhã
M
55 °F 6¼ mi+ 2.200 ft 010° 010° 7 kt METAR LFBL 270630Z AUTO 01007KT 330V070 9999 OVC022 13/11 Q1027 NOSIG
8:00 da manhã
M
55 °F 6¼ mi+ 2.200 ft 360° 360° 6 kt METAR LFBL 270600Z AUTO 36006KT 330V030 9999 OVC022 13/11 Q1027 NOSIG
7:30 da manhã
M
54 °F 6¼ mi+ 2.300 ft 010° 010° 7 kt METAR LFBL 270530Z AUTO 01007KT 330V030 9999 OVC023 12/11 Q1026 NOSIG
7:00 da manhã
M
54 °F 6¼ mi+ 2.500 ft 360° 360° 8 kt METAR LFBL 270500Z AUTO 36008KT 330V030 9999 OVC025 12/11 Q1026 NOSIG
6:30 da manhã
M
54 °F 6¼ mi+ 2.600 ft 360° 360° 8 kt METAR LFBL 270430Z AUTO 36008KT 320V030 9999 OVC026 12/11 Q1026 NOSIG
6:00 da manhã
M
54 °F 6¼ mi+ 2.600 ft 360° 360° 8 kt METAR LFBL 270400Z AUTO 36008KT 9999 OVC026 12/11 Q1026 NOSIG
5:30 da manhã
M
55 °F 6¼ mi+ 2.800 ft 010° 010° 7 kt METAR LFBL 270330Z AUTO 01007KT 9999 OVC028 13/11 Q1026 NOSIG
5:00 da manhã
M
55 °F 6¼ mi+ 2.900 ft 010° 010° 7 kt METAR LFBL 270300Z AUTO 01007KT 340V040 9999 OVC029 13/11 Q1026 NOSIG
4:30 da manhã
M
55 °F 6¼ mi+ 2.900 ft 360° 360° 6 kt METAR LFBL 270230Z AUTO 36006KT 330V040 9999 OVC029 13/11 Q1026 NOSIG
4:00 da manhã
V
55 °F 6¼ mi+ 3.000 ft 350° 350° 8 kt METAR LFBL 270200Z AUTO 35008KT 320V020 9999 OVC030 13/11 Q1026 NOSIG
3:30 da manhã
V
54 °F 6¼ mi+ 3.100 ft 350° 350° 8 kt METAR LFBL 270130Z AUTO 35008KT 9999 BKN031 12/11 Q1027 NOSIG
3:00 da manhã
V
54 °F 6¼ mi+ - 350° 350° 7 kt METAR LFBL 270100Z AUTO 35007KT 9999 SCT033 12/11 Q1027 NOSIG
2:30 da manhã
V
54 °F 6¼ mi+ - 340° 340° 8 kt METAR LFBL 270030Z AUTO 34008KT 9999 FEW034 12/11 Q1027 NOSIG
2:00 da manhã
V
55 °F 6¼ mi+ - 330° 330° 7 kt METAR LFBL 270000Z AUTO 33007KT CAVOK 13/11 Q1027 NOSIG
1:30 da manhã
V
55 °F 6¼ mi+ - 330° 330° 6 kt METAR LFBL 262330Z AUTO 33006KT CAVOK 13/11 Q1027 NOSIG
1:00 da manhã
V
55 °F 6¼ mi+ - 320° 320° 5 kt METAR LFBL 262300Z AUTO 32005KT 9999 SCT032 13/11 Q1027 NOSIG
12:30 da manhã
V
57 °F 6¼ mi+ 3.200 ft 320° 320° 5 kt METAR LFBL 262230Z AUTO 32005KT 9999 OVC032 14/11 Q1028 NOSIG
12:00 da manhã
V
57 °F 6¼ mi+ - 320° 320° 5 kt METAR LFBL 262200Z AUTO 32005KT 9999 SCT032 14/11 Q1027 NOSIG

26 de maio de 2022

Hora Código Clima Temp. Visibilidade Tecto Vento METAR/SPECI
11:30 da tarde
V
57 °F 6¼ mi+ 3.200 ft 320° 320° 5 kt METAR LFBL 262130Z AUTO 32005KT 9999 OVC032 14/11 Q1028 NOSIG
11:00 da tarde
V
57 °F 6¼ mi+ 3.100 ft 320° 320° 4 kt METAR LFBL 262100Z AUTO 32004KT 9999 BKN031 14/11 Q1028 NOSIG
10:30 da tarde
V
57 °F 6¼ mi+ - 310° 310° 4 kt METAR LFBL 262030Z AUTO 31004KT 9999 FEW031 14/11 Q1027 NOSIG
10:00 da tarde
V
57 °F 6¼ mi+ - 300° 300° 4 kt METAR LFBL 262000Z AUTO 30004KT CAVOK 14/11 Q1027 NOSIG
9:30 da tarde
V
59 °F 6¼ mi+ - 300° 300° 4 kt METAR LFBL 261930Z AUTO 30004KT CAVOK 15/11 Q1027 NOSIG
9:00 da tarde
V
61 °F 6¼ mi+ - 310° 310° 3 kt METAR LFBL 261900Z AUTO 31003KT 9999 FEW028 16/11 Q1026 NOSIG
8:30 da tarde
V
61 °F 6¼ mi+ - 320° 320° 4 kt METAR LFBL 261830Z AUTO 32004KT CAVOK 16/11 Q1026 NOSIG
8:00 da tarde
V
63 °F 6¼ mi+ - Var Var 2 kt METAR LFBL 261800Z AUTO VRB02KT 9999 FEW033 17/11 Q1026 NOSIG
7:30 da tarde
V
61 °F 6¼ mi+ 3.500 ft 360° 360° 2 kt METAR LFBL 261730Z AUTO 36002KT 9999 BKN035 16/11 Q1026 NOSIG
7:00 da tarde
V
63 °F 6¼ mi+ 3.500 ft 360° 360° 4 kt METAR LFBL 261700Z AUTO 36004KT 310V050 9999 OVC035 17/11 Q1027 NOSIG
6:30 da tarde
V
61 °F 6¼ mi+ 3.400 ft 010° 010° 3 kt METAR LFBL 261630Z AUTO 01003KT 340V040 9999 SCT025 OVC034 16/11 Q1027 NOSIG
6:00 da tarde
V
61 °F 6¼ mi+ 3.300 ft 330° 330° 5 kt METAR LFBL 261600Z AUTO 33005KT 290V010 9999 OVC033 16/11 Q1027 NOSIG
5:30 da tarde
V
61 °F 6¼ mi+ 3.100 ft 030° 030° 4 kt METAR LFBL 261530Z AUTO 03004KT 350V060 9999 FEW023 OVC031 16/10 Q1027 NOSIG
5:00 da tarde
V
61 °F 6¼ mi+ 3.100 ft 010° 010° 4 kt METAR LFBL 261500Z AUTO 01004KT 310V030 9999 OVC031 16/11 Q1027 NOSIG
Dados mais antigos

Baixe nosso aplicativo

Fácil acesso a todas as condições meteorológicas da aviação no seu celular e no seu tablet.
Com muitas características não disponíveis no site, como suporte offline e uma lista pessoal de aeroportos.

Nós e terceiros acompanhamos seu comportamento na internet em nosso site com cookies. Se você continuar, nós assumimos que você concorda com nossa política de cookies. Saiba mais